sensor_id;sensor_type;location;lat;lon;timestamp;temperature;humidity
16635;DHT22;8431;52.458;9.998;2023-02-01T00:00:32;5.10;99.90
16635;DHT22;8431;52.458;9.998;2023-02-01T00:03:00;5.10;99.90
16635;DHT22;8431;52.458;9.998;2023-02-01T00:05:27;5.20;99.90
16635;DHT22;8431;52.458;9.998;2023-02-01T00:07:54;5.20;99.90
16635;DHT22;8431;52.458;9.998;2023-02-01T00:10:23;5.20;99.90
16635;DHT22;8431;52.458;9.998;2023-02-01T00:12:50;5.20;99.90
16635;DHT22;8431;52.458;9.998;2023-02-01T00:15:17;5.20;99.90
16635;DHT22;8431;52.458;9.998;2023-02-01T00:17:45;5.20;99.90
16635;DHT22;8431;52.458;9.998;2023-02-01T00:20:12;5.20;99.90
16635;DHT22;8431;52.458;9.998;2023-02-01T00:22:39;5.20;99.90
16635;DHT22;8431;52.458;9.998;2023-02-01T00:25:07;5.20;99.90
16635;DHT22;8431;52.458;9.998;2023-02-01T00:27:35;5.30;99.90
16635;DHT22;8431;52.458;9.998;2023-02-01T00:30:03;5.20;99.90
16635;DHT22;8431;52.458;9.998;2023-02-01T00:32:30;5.30;99.90
16635;DHT22;8431;52.458;9.998;2023-02-01T00:34:57;5.20;99.90
16635;DHT22;8431;52.458;9.998;2023-02-01T00:37:24;5.20;99.90
16635;DHT22;8431;52.458;9.998;2023-02-01T00:39:51;5.20;99.90
16635;DHT22;8431;52.458;9.998;2023-02-01T00:42:21;5.20;99.90
16635;DHT22;8431;52.458;9.998;2023-02-01T00:47:45;5.30;99.90
16635;DHT22;8431;52.458;9.998;2023-02-01T00:50:12;5.30;99.90
16635;DHT22;8431;52.458;9.998;2023-02-01T00:52:39;5.20;99.90
16635;DHT22;8431;52.458;9.998;2023-02-01T00:55:07;5.20;99.90
16635;DHT22;8431;52.458;9.998;2023-02-01T00:57:34;5.20;99.90
16635;DHT22;8431;52.458;9.998;2023-02-01T01:00:01;5.20;99.90
16635;DHT22;8431;52.458;9.998;2023-02-01T01:02:28;5.20;99.90
16635;DHT22;8431;52.458;9.998;2023-02-01T01:04:56;5.20;99.90
16635;DHT22;8431;52.458;9.998;2023-02-01T01:07:23;5.30;99.90
16635;DHT22;8431;52.458;9.998;2023-02-01T01:09:50;5.20;99.90
16635;DHT22;8431;52.458;9.998;2023-02-01T01:12:17;5.20;99.90
16635;DHT22;8431;52.458;9.998;2023-02-01T01:14:45;5.10;99.90
16635;DHT22;8431;52.458;9.998;2023-02-01T01:17:12;5.10;99.90
16635;DHT22;8431;52.458;9.998;2023-02-01T01:19:39;5.10;99.90
16635;DHT22;8431;52.458;9.998;2023-02-01T01:22:08;5.10;99.90
16635;DHT22;8431;52.458;9.998;2023-02-01T01:24:35;5.10;99.90
16635;DHT22;8431;52.458;9.998;2023-02-01T01:27:02;5.10;99.90
16635;DHT22;8431;52.458;9.998;2023-02-01T01:29:29;5.10;99.90
16635;DHT22;8431;52.458;9.998;2023-02-01T01:31:56;5.10;99.90
16635;DHT22;8431;52.458;9.998;2023-02-01T01:34:23;5.10;99.90
16635;DHT22;8431;52.458;9.998;2023-02-01T01:36:50;5.10;99.90
16635;DHT22;8431;52.458;9.998;2023-02-01T01:39:18;5.10;99.90
16635;DHT22;8431;52.458;9.998;2023-02-01T01:41:46;5.10;99.90
16635;DHT22;8431;52.458;9.998;2023-02-01T01:47:17;5.10;99.90
16635;DHT22;8431;52.458;9.998;2023-02-01T01:49:44;5.10;99.90
16635;DHT22;8431;52.458;9.998;2023-02-01T01:52:12;5.10;99.90
16635;DHT22;8431;52.458;9.998;2023-02-01T01:54:43;5.10;99.90
16635;DHT22;8431;52.458;9.998;2023-02-01T01:57:13;5.10;99.90
16635;DHT22;8431;52.458;9.998;2023-02-01T01:59:43;5.10;99.90
16635;DHT22;8431;52.458;9.998;2023-02-01T02:02:13;5.10;99.90
16635;DHT22;8431;52.458;9.998;2023-02-01T02:04:40;5.10;99.90
16635;DHT22;8431;52.458;9.998;2023-02-01T02:07:11;5.10;99.90
16635;DHT22;8431;52.458;9.998;2023-02-01T02:09:40;5.20;99.90
16635;DHT22;8431;52.458;9.998;2023-02-01T02:12:08;5.20;99.90
16635;DHT22;8431;52.458;9.998;2023-02-01T02:14:36;5.10;99.90
16635;DHT22;8431;52.458;9.998;2023-02-01T02:17:18;5.10;99.90
16635;DHT22;8431;52.458;9.998;2023-02-01T02:20:22;5.10;99.90
16635;DHT22;8431;52.458;9.998;2023-02-01T02:23:18;5.10;99.90
16635;DHT22;8431;52.458;9.998;2023-02-01T02:26:11;5.10;99.90
16635;DHT22;8431;52.458;9.998;2023-02-01T02:32:20;5.10;99.90
16635;DHT22;8431;52.458;9.998;2023-02-01T02:34:53;5.10;99.90
16635;DHT22;8431;52.458;9.998;2023-02-01T02:37:27;5.10;99.90
16635;DHT22;8431;52.458;9.998;2023-02-01T02:40:05;5.10;99.90
16635;DHT22;8431;52.458;9.998;2023-02-01T02:42:39;5.10;99.90
16635;DHT22;8431;52.458;9.998;2023-02-01T02:45:29;5.00;99.90
16635;DHT22;8431;52.458;9.998;2023-02-01T02:48:20;5.00;99.90
16635;DHT22;8431;52.458;9.998;2023-02-01T02:50:54;5.00;99.90
16635;DHT22;8431;52.458;9.998;2023-02-01T02:53:51;5.10;99.90
16635;DHT22;8431;52.458;9.998;2023-02-01T02:56:38;5.10;99.90
16635;DHT22;8431;52.458;9.998;2023-02-01T02:59:24;5.10;99.90
16635;DHT22;8431;52.458;9.998;2023-02-01T03:02:17;5.10;99.90
16635;DHT22;8431;52.458;9.998;2023-02-01T03:05:05;5.10;99.90
16635;DHT22;8431;52.458;9.998;2023-02-01T03:08:00;5.10;99.90
16635;DHT22;8431;52.458;9.998;2023-02-01T03:10:35;5.20;99.90
16635;DHT22;8431;52.458;9.998;2023-02-01T03:13:09;5.20;99.90
16635;DHT22;8431;52.458;9.998;2023-02-01T03:15:40;5.20;99.90
16635;DHT22;8431;52.458;9.998;2023-02-01T03:18:12;5.30;99.90
16635;DHT22;8431;52.458;9.998;2023-02-01T03:20:46;5.20;99.90
16635;DHT22;8431;52.458;9.998;2023-02-01T03:23:18;5.20;99.90
16635;DHT22;8431;52.458;9.998;2023-02-01T03:25:47;5.30;99.90
16635;DHT22;8431;52.458;9.998;2023-02-01T03:28:17;5.30;99.90
16635;DHT22;8431;52.458;9.998;2023-02-01T03:30:48;5.30;99.90
16635;DHT22;8431;52.458;9.998;2023-02-01T03:33:18;5.30;99.90
16635;DHT22;8431;52.458;9.998;2023-02-01T03:36:09;5.30;99.90
16635;DHT22;8431;52.458;9.998;2023-02-01T03:38:43;5.30;99.90
16635;DHT22;8431;52.458;9.998;2023-02-01T03:41:18;5.30;99.90
16635;DHT22;8431;52.458;9.998;2023-02-01T03:43:53;5.40;99.90
16635;DHT22;8431;52.458;9.998;2023-02-01T03:46:25;5.40;99.90
16635;DHT22;8431;52.458;9.998;2023-02-01T03:49:00;5.30;99.90
16635;DHT22;8431;52.458;9.998;2023-02-01T03:51:29;5.30;99.90
16635;DHT22;8431;52.458;9.998;2023-02-01T03:53:59;5.30;99.90
16635;DHT22;8431;52.458;9.998;2023-02-01T03:56:29;5.30;99.90
16635;DHT22;8431;52.458;9.998;2023-02-01T03:58:57;5.30;99.90
16635;DHT22;8431;52.458;9.998;2023-02-01T04:01:26;5.30;99.90
16635;DHT22;8431;52.458;9.998;2023-02-01T04:03:54;5.20;99.90
16635;DHT22;8431;52.458;9.998;2023-02-01T04:06:21;5.20;99.90
16635;DHT22;8431;52.458;9.998;2023-02-01T04:11:57;5.20;99.90
16635;DHT22;8431;52.458;9.998;2023-02-01T04:14:24;5.20;99.90
16635;DHT22;8431;52.458;9.998;2023-02-01T04:16:51;5.30;99.90
16635;DHT22;8431;52.458;9.998;2023-02-01T04:19:18;5.30;99.90
16635;DHT22;8431;52.458;9.998;2023-02-01T04:21:45;5.30;99.90
16635;DHT22;8431;52.458;9.998;2023-02-01T04:24:15;5.30;99.90
16635;DHT22;8431;52.458;9.998;2023-02-01T04:26:42;5.30;99.90
16635;DHT22;8431;52.458;9.998;2023-02-01T04:29:10;5.30;99.90
16635;DHT22;8431;52.458;9.998;2023-02-01T04:31:37;5.30;99.90
16635;DHT22;8431;52.458;9.998;2023-02-01T04:34:04;5.30;99.90
16635;DHT22;8431;52.458;9.998;2023-02-01T04:36:31;5.30;99.90
16635;DHT22;8431;52.458;9.998;2023-02-01T04:38:58;5.30;99.90
16635;DHT22;8431;52.458;9.998;2023-02-01T04:41:25;5.30;99.90
16635;DHT22;8431;52.458;9.998;2023-02-01T04:43:52;5.30;99.90
16635;DHT22;8431;52.458;9.998;2023-02-01T04:46:21;5.30;99.90
16635;DHT22;8431;52.458;9.998;2023-02-01T04:48:48;5.30;99.90
16635;DHT22;8431;52.458;9.998;2023-02-01T04:51:15;5.30;99.90
16635;DHT22;8431;52.458;9.998;2023-02-01T04:53:43;5.30;99.90
16635;DHT22;8431;52.458;9.998;2023-02-01T04:56:11;5.10;99.90
16635;DHT22;8431;52.458;9.998;2023-02-01T04:58:38;5.00;99.90
16635;DHT22;8431;52.458;9.998;2023-02-01T05:01:06;5.00;99.90
16635;DHT22;8431;52.458;9.998;2023-02-01T05:03:35;5.00;99.90
16635;DHT22;8431;52.458;9.998;2023-02-01T05:06:02;4.90;99.90
16635;DHT22;8431;52.458;9.998;2023-02-01T05:08:31;4.90;99.90
16635;DHT22;8431;52.458;9.998;2023-02-01T05:10:58;4.90;99.90
16635;DHT22;8431;52.458;9.998;2023-02-01T05:13:28;5.00;99.90
16635;DHT22;8431;52.458;9.998;2023-02-01T05:16:12;5.00;99.90
16635;DHT22;8431;52.458;9.998;2023-02-01T05:18:41;4.80;99.90
16635;DHT22;8431;52.458;9.998;2023-02-01T05:21:08;4.70;99.90
16635;DHT22;8431;52.458;9.998;2023-02-01T05:23:35;4.60;99.90
16635;DHT22;8431;52.458;9.998;2023-02-01T05:26:23;4.60;99.90
16635;DHT22;8431;52.458;9.998;2023-02-01T05:28:50;4.50;99.90
16635;DHT22;8431;52.458;9.998;2023-02-01T05:31:17;4.50;99.90
16635;DHT22;8431;52.458;9.998;2023-02-01T05:33:46;4.40;99.90
16635;DHT22;8431;52.458;9.998;2023-02-01T05:36:13;4.40;99.90
16635;DHT22;8431;52.458;9.998;2023-02-01T05:38:40;4.40;99.90
16635;DHT22;8431;52.458;9.998;2023-02-01T05:41:07;4.40;99.90
16635;DHT22;8431;52.458;9.998;2023-02-01T05:43:34;4.40;99.90
16635;DHT22;8431;52.458;9.998;2023-02-01T05:46:02;4.40;99.90
16635;DHT22;8431;52.458;9.998;2023-02-01T05:48:29;4.50;99.90
16635;DHT22;8431;52.458;9.998;2023-02-01T05:50:57;4.40;99.90
16635;DHT22;8431;52.458;9.998;2023-02-01T05:53:24;4.50;99.90
16635;DHT22;8431;52.458;9.998;2023-02-01T05:55:51;4.50;99.90
16635;DHT22;8431;52.458;9.998;2023-02-01T05:58:18;4.60;99.90
16635;DHT22;8431;52.458;9.998;2023-02-01T06:00:45;4.60;99.90
16635;DHT22;8431;52.458;9.998;2023-02-01T06:03:12;4.60;99.90
16635;DHT22;8431;52.458;9.998;2023-02-01T06:05:39;4.60;99.90
16635;DHT22;8431;52.458;9.998;2023-02-01T06:08:07;4.60;99.90
16635;DHT22;8431;52.458;9.998;2023-02-01T06:10:34;4.60;99.90
16635;DHT22;8431;52.458;9.998;2023-02-01T06:13:02;4.60;99.90
16635;DHT22;8431;52.458;9.998;2023-02-01T06:15:29;4.70;99.90
16635;DHT22;8431;52.458;9.998;2023-02-01T06:18:00;4.70;99.90
16635;DHT22;8431;52.458;9.998;2023-02-01T06:20:27;4.80;99.90
16635;DHT22;8431;52.458;9.998;2023-02-01T06:22:54;4.80;99.90
16635;DHT22;8431;52.458;9.998;2023-02-01T06:25:22;4.80;99.90
16635;DHT22;8431;52.458;9.998;2023-02-01T06:27:49;4.80;99.90
16635;DHT22;8431;52.458;9.998;2023-02-01T06:30:17;4.80;99.90
16635;DHT22;8431;52.458;9.998;2023-02-01T06:32:44;4.60;99.90
16635;DHT22;8431;52.458;9.998;2023-02-01T06:35:11;4.60;99.90
16635;DHT22;8431;52.458;9.998;2023-02-01T06:37:41;4.50;99.90
16635;DHT22;8431;52.458;9.998;2023-02-01T06:40:10;4.50;99.90
16635;DHT22;8431;52.458;9.998;2023-02-01T06:42:38;4.50;99.90
16635;DHT22;8431;52.458;9.998;2023-02-01T06:45:06;4.50;99.90
16635;DHT22;8431;52.458;9.998;2023-02-01T06:47:33;4.50;99.90
16635;DHT22;8431;52.458;9.998;2023-02-01T06:50:00;4.50;99.90
16635;DHT22;8431;52.458;9.998;2023-02-01T06:52:27;4.60;99.90
16635;DHT22;8431;52.458;9.998;2023-02-01T06:54:54;4.60;99.90
16635;DHT22;8431;52.458;9.998;2023-02-01T06:57:21;4.60;99.90
16635;DHT22;8431;52.458;9.998;2023-02-01T06:59:50;4.60;99.90
16635;DHT22;8431;52.458;9.998;2023-02-01T07:02:17;4.60;99.90
16635;DHT22;8431;52.458;9.998;2023-02-01T07:04:44;4.60;99.90
16635;DHT22;8431;52.458;9.998;2023-02-01T07:07:11;4.60;99.90
16635;DHT22;8431;52.458;9.998;2023-02-01T07:09:38;4.60;99.90
16635;DHT22;8431;52.458;9.998;2023-02-01T07:12:06;4.60;99.90
16635;DHT22;8431;52.458;9.998;2023-02-01T07:14:34;4.60;99.90
16635;DHT22;8431;52.458;9.998;2023-02-01T07:17:02;4.60;99.90
16635;DHT22;8431;52.458;9.998;2023-02-01T07:19:29;4.50;99.90
16635;DHT22;8431;52.458;9.998;2023-02-01T07:21:56;4.60;99.90
16635;DHT22;8431;52.458;9.998;2023-02-01T07:24:23;4.60;99.90
16635;DHT22;8431;52.458;9.998;2023-02-01T07:26:51;4.60;99.90
16635;DHT22;8431;52.458;9.998;2023-02-01T07:29:18;4.70;99.90
16635;DHT22;8431;52.458;9.998;2023-02-01T07:31:45;4.70;99.90
16635;DHT22;8431;52.458;9.998;2023-02-01T07:34:13;4.70;99.90
16635;DHT22;8431;52.458;9.998;2023-02-01T07:36:40;4.70;99.90
16635;DHT22;8431;52.458;9.998;2023-02-01T07:39:08;4.70;99.90
16635;DHT22;8431;52.458;9.998;2023-02-01T07:41:36;4.80;99.90
16635;DHT22;8431;52.458;9.998;2023-02-01T07:44:08;4.80;99.90
16635;DHT22;8431;52.458;9.998;2023-02-01T07:46:38;4.70;99.90
16635;DHT22;8431;52.458;9.998;2023-02-01T07:49:05;4.70;99.90
16635;DHT22;8431;52.458;9.998;2023-02-01T07:51:34;4.60;99.90
16635;DHT22;8431;52.458;9.998;2023-02-01T07:54:01;4.60;99.90
16635;DHT22;8431;52.458;9.998;2023-02-01T07:56:45;4.60;99.90
16635;DHT22;8431;52.458;9.998;2023-02-01T07:59:12;4.60;99.90
16635;DHT22;8431;52.458;9.998;2023-02-01T08:01:40;4.60;99.90
16635;DHT22;8431;52.458;9.998;2023-02-01T08:04:07;4.60;99.90
16635;DHT22;8431;52.458;9.998;2023-02-01T08:06:37;4.60;99.90
16635;DHT22;8431;52.458;9.998;2023-02-01T08:09:06;4.60;99.90
16635;DHT22;8431;52.458;9.998;2023-02-01T08:11:34;4.60;99.90
16635;DHT22;8431;52.458;9.998;2023-02-01T08:14:03;4.60;99.90
16635;DHT22;8431;52.458;9.998;2023-02-01T08:16:31;4.60;99.90
16635;DHT22;8431;52.458;9.998;2023-02-01T08:18:59;4.60;99.90
16635;DHT22;8431;52.458;9.998;2023-02-01T08:21:28;4.10;99.90
16635;DHT22;8431;52.458;9.998;2023-02-01T08:24:04;3.50;99.90
16635;DHT22;8431;52.458;9.998;2023-02-01T08:26:31;3.20;99.90
16635;DHT22;8431;52.458;9.998;2023-02-01T08:29:00;3.00;99.90
16635;DHT22;8431;52.458;9.998;2023-02-01T08:31:29;3.00;99.90
16635;DHT22;8431;52.458;9.998;2023-02-01T08:33:58;3.10;99.90
16635;DHT22;8431;52.458;9.998;2023-02-01T08:36:26;3.10;99.90
16635;DHT22;8431;52.458;9.998;2023-02-01T08:38:54;3.20;99.90
16635;DHT22;8431;52.458;9.998;2023-02-01T08:41:24;3.50;99.90
16635;DHT22;8431;52.458;9.998;2023-02-01T08:43:52;3.80;99.90
16635;DHT22;8431;52.458;9.998;2023-02-01T08:46:20;3.90;99.90
16635;DHT22;8431;52.458;9.998;2023-02-01T08:48:48;4.00;99.90
16635;DHT22;8431;52.458;9.998;2023-02-01T08:51:16;4.10;99.90
16635;DHT22;8431;52.458;9.998;2023-02-01T08:53:44;4.20;99.90
16635;DHT22;8431;52.458;9.998;2023-02-01T08:56:12;4.30;99.90
16635;DHT22;8431;52.458;9.998;2023-02-01T08:58:41;4.40;99.90
16635;DHT22;8431;52.458;9.998;2023-02-01T09:01:09;4.30;99.90
16635;DHT22;8431;52.458;9.998;2023-02-01T09:03:38;4.30;99.90
16635;DHT22;8431;52.458;9.998;2023-02-01T09:06:06;4.40;99.90
16635;DHT22;8431;52.458;9.998;2023-02-01T09:08:34;4.40;99.90
16635;DHT22;8431;52.458;9.998;2023-02-01T09:11:02;4.40;99.90
16635;DHT22;8431;52.458;9.998;2023-02-01T09:13:30;4.40;99.90
16635;DHT22;8431;52.458;9.998;2023-02-01T09:15:58;4.50;99.90
16635;DHT22;8431;52.458;9.998;2023-02-01T09:18:26;4.60;99.90
16635;DHT22;8431;52.458;9.998;2023-02-01T09:20:53;4.90;99.90
16635;DHT22;8431;52.458;9.998;2023-02-01T09:23:20;5.00;99.90
16635;DHT22;8431;52.458;9.998;2023-02-01T09:25:48;5.10;99.90
16635;DHT22;8431;52.458;9.998;2023-02-01T09:28:16;5.20;99.90
16635;DHT22;8431;52.458;9.998;2023-02-01T09:30:43;5.30;99.90
16635;DHT22;8431;52.458;9.998;2023-02-01T09:33:12;5.30;99.90
16635;DHT22;8431;52.458;9.998;2023-02-01T09:35:39;5.40;99.90
16635;DHT22;8431;52.458;9.998;2023-02-01T09:38:06;5.40;99.90
16635;DHT22;8431;52.458;9.998;2023-02-01T09:40:34;5.50;99.90
16635;DHT22;8431;52.458;9.998;2023-02-01T09:43:14;5.60;99.90
16635;DHT22;8431;52.458;9.998;2023-02-01T09:45:51;5.70;99.90
16635;DHT22;8431;52.458;9.998;2023-02-01T09:48:31;5.70;99.90
16635;DHT22;8431;52.458;9.998;2023-02-01T09:51:14;5.80;99.90
16635;DHT22;8431;52.458;9.998;2023-02-01T09:53:46;5.90;99.90
16635;DHT22;8431;52.458;9.998;2023-02-01T09:56:21;5.80;99.90
16635;DHT22;8431;52.458;9.998;2023-02-01T09:58:54;6.00;99.90
16635;DHT22;8431;52.458;9.998;2023-02-01T10:01:26;5.90;99.90
16635;DHT22;8431;52.458;9.998;2023-02-01T10:03:59;5.90;99.90
16635;DHT22;8431;52.458;9.998;2023-02-01T10:06:36;5.90;99.90
16635;DHT22;8431;52.458;9.998;2023-02-01T10:09:29;5.90;99.90
16635;DHT22;8431;52.458;9.998;2023-02-01T10:15:05;6.00;99.90
16635;DHT22;8431;52.458;9.998;2023-02-01T10:17:53;6.10;99.90
16635;DHT22;8431;52.458;9.998;2023-02-01T10:20:26;6.20;99.90
16635;DHT22;8431;52.458;9.998;2023-02-01T10:23:04;6.20;99.90
16635;DHT22;8431;52.458;9.998;2023-02-01T10:25:38;6.30;99.90
16635;DHT22;8431;52.458;9.998;2023-02-01T10:28:14;6.30;99.90
16635;DHT22;8431;52.458;9.998;2023-02-01T10:30:44;6.40;99.90
16635;DHT22;8431;52.458;9.998;2023-02-01T10:33:16;6.40;99.90
16635;DHT22;8431;52.458;9.998;2023-02-01T10:35:46;6.50;99.90
16635;DHT22;8431;52.458;9.998;2023-02-01T10:38:22;6.50;99.90
16635;DHT22;8431;52.458;9.998;2023-02-01T10:40:52;6.50;99.90
16635;DHT22;8431;52.458;9.998;2023-02-01T10:43:20;6.50;99.90
16635;DHT22;8431;52.458;9.998;2023-02-01T10:45:47;6.50;99.90
16635;DHT22;8431;52.458;9.998;2023-02-01T10:48:14;6.50;99.90
16635;DHT22;8431;52.458;9.998;2023-02-01T10:50:51;6.40;99.90
16635;DHT22;8431;52.458;9.998;2023-02-01T10:53:23;6.40;99.90
16635;DHT22;8431;52.458;9.998;2023-02-01T10:55:52;6.40;99.90
16635;DHT22;8431;52.458;9.998;2023-02-01T10:58:25;6.40;99.90
16635;DHT22;8431;52.458;9.998;2023-02-01T11:00:54;6.40;99.90
16635;DHT22;8431;52.458;9.998;2023-02-01T11:03:40;6.40;99.90
16635;DHT22;8431;52.458;9.998;2023-02-01T11:06:21;6.40;99.90
16635;DHT22;8431;52.458;9.998;2023-02-01T11:08:51;6.50;99.90
16635;DHT22;8431;52.458;9.998;2023-02-01T11:11:19;6.50;99.90
16635;DHT22;8431;52.458;9.998;2023-02-01T11:13:53;6.50;99.90
16635;DHT22;8431;52.458;9.998;2023-02-01T11:16:20;6.50;99.90
16635;DHT22;8431;52.458;9.998;2023-02-01T11:18:53;6.50;99.90
16635;DHT22;8431;52.458;9.998;2023-02-01T11:21:22;6.50;99.90
16635;DHT22;8431;52.458;9.998;2023-02-01T11:23:50;6.40;99.90
16635;DHT22;8431;52.458;9.998;2023-02-01T11:26:21;6.40;99.90
16635;DHT22;8431;52.458;9.998;2023-02-01T11:28:53;6.50;99.90
16635;DHT22;8431;52.458;9.998;2023-02-01T11:31:22;6.60;99.90
16635;DHT22;8431;52.458;9.998;2023-02-01T11:33:52;6.70;99.90
16635;DHT22;8431;52.458;9.998;2023-02-01T11:36:24;6.80;99.90
16635;DHT22;8431;52.458;9.998;2023-02-01T11:38:54;6.90;99.90
16635;DHT22;8431;52.458;9.998;2023-02-01T11:41:33;7.10;99.90
16635;DHT22;8431;52.458;9.998;2023-02-01T11:44:14;7.20;99.90
16635;DHT22;8431;52.458;9.998;2023-02-01T11:46:43;7.20;99.90
16635;DHT22;8431;52.458;9.998;2023-02-01T11:49:20;7.10;99.90
16635;DHT22;8431;52.458;9.998;2023-02-01T11:52:00;6.90;99.90
16635;DHT22;8431;52.458;9.998;2023-02-01T11:54:43;6.80;99.90
16635;DHT22;8431;52.458;9.998;2023-02-01T11:57:25;7.00;99.90
16635;DHT22;8431;52.458;9.998;2023-02-01T12:00:02;6.90;99.90
16635;DHT22;8431;52.458;9.998;2023-02-01T12:03:01;6.90;99.90
16635;DHT22;8431;52.458;9.998;2023-02-01T12:05:41;6.90;99.90
16635;DHT22;8431;52.458;9.998;2023-02-01T12:11:24;6.70;99.90
16635;DHT22;8431;52.458;9.998;2023-02-01T12:14:01;6.70;99.90
16635;DHT22;8431;52.458;9.998;2023-02-01T12:16:37;6.80;99.90
16635;DHT22;8431;52.458;9.998;2023-02-01T12:19:34;6.80;99.90
16635;DHT22;8431;52.458;9.998;2023-02-01T12:22:17;6.70;99.90
16635;DHT22;8431;52.458;9.998;2023-02-01T12:24:58;6.60;99.90
16635;DHT22;8431;52.458;9.998;2023-02-01T12:27:49;6.50;99.90
16635;DHT22;8431;52.458;9.998;2023-02-01T12:30:33;6.40;99.90
16635;DHT22;8431;52.458;9.998;2023-02-01T12:33:07;6.40;99.90
16635;DHT22;8431;52.458;9.998;2023-02-01T12:35:48;6.30;99.90
16635;DHT22;8431;52.458;9.998;2023-02-01T12:38:29;6.20;99.90
16635;DHT22;8431;52.458;9.998;2023-02-01T12:41:13;6.10;99.90
16635;DHT22;8431;52.458;9.998;2023-02-01T12:43:47;5.90;99.90
16635;DHT22;8431;52.458;9.998;2023-02-01T12:46:19;5.70;99.90
16635;DHT22;8431;52.458;9.998;2023-02-01T12:48:55;5.50;99.90
16635;DHT22;8431;52.458;9.998;2023-02-01T12:51:26;5.40;99.90
16635;DHT22;8431;52.458;9.998;2023-02-01T12:53:57;5.40;99.90
16635;DHT22;8431;52.458;9.998;2023-02-01T12:56:32;5.40;99.90
16635;DHT22;8431;52.458;9.998;2023-02-01T12:59:04;5.40;99.90
16635;DHT22;8431;52.458;9.998;2023-02-01T13:01:37;5.40;99.90
16635;DHT22;8431;52.458;9.998;2023-02-01T13:04:10;5.40;99.90
16635;DHT22;8431;52.458;9.998;2023-02-01T13:06:43;5.30;99.90
16635;DHT22;8431;52.458;9.998;2023-02-01T13:09:19;5.30;99.90
16635;DHT22;8431;52.458;9.998;2023-02-01T13:11:49;5.20;99.90
16635;DHT22;8431;52.458;9.998;2023-02-01T13:14:25;5.20;99.90
16635;DHT22;8431;52.458;9.998;2023-02-01T13:16:59;5.20;99.90
16635;DHT22;8431;52.458;9.998;2023-02-01T13:19:30;5.20;99.90
16635;DHT22;8431;52.458;9.998;2023-02-01T13:22:05;5.20;99.90
16635;DHT22;8431;52.458;9.998;2023-02-01T13:24:39;5.10;99.90
16635;DHT22;8431;52.458;9.998;2023-02-01T13:27:11;5.10;99.90
16635;DHT22;8431;52.458;9.998;2023-02-01T13:29:45;5.00;99.90
16635;DHT22;8431;52.458;9.998;2023-02-01T13:38:42;4.30;99.90
16635;DHT22;8431;52.458;9.998;2023-02-01T13:41:24;4.10;99.90
16635;DHT22;8431;52.458;9.998;2023-02-01T13:43:59;4.10;99.90
16635;DHT22;8431;52.458;9.998;2023-02-01T13:46:30;4.10;99.90
16635;DHT22;8431;52.458;9.998;2023-02-01T13:49:05;4.00;99.90
16635;DHT22;8431;52.458;9.998;2023-02-01T13:51:37;4.00;99.90
16635;DHT22;8431;52.458;9.998;2023-02-01T13:54:21;4.00;99.90
16635;DHT22;8431;52.458;9.998;2023-02-01T13:56:50;3.90;99.90
16635;DHT22;8431;52.458;9.998;2023-02-01T13:59:49;3.90;99.90
16635;DHT22;8431;52.458;9.998;2023-02-01T14:02:46;3.90;99.90
16635;DHT22;8431;52.458;9.998;2023-02-01T14:08:22;3.90;99.90
16635;DHT22;8431;52.458;9.998;2023-02-01T14:10:51;3.80;99.90
16635;DHT22;8431;52.458;9.998;2023-02-01T14:13:27;3.80;99.90
16635;DHT22;8431;52.458;9.998;2023-02-01T14:16:15;3.80;99.90
16635;DHT22;8431;52.458;9.998;2023-02-01T14:19:06;3.80;99.90
16635;DHT22;8431;52.458;9.998;2023-02-01T14:21:45;3.60;99.90
16635;DHT22;8431;52.458;9.998;2023-02-01T14:24:20;3.60;99.90
16635;DHT22;8431;52.458;9.998;2023-02-01T14:26:52;3.60;99.90
16635;DHT22;8431;52.458;9.998;2023-02-01T14:29:26;3.60;99.90
16635;DHT22;8431;52.458;9.998;2023-02-01T14:32:03;3.60;99.90
16635;DHT22;8431;52.458;9.998;2023-02-01T14:34:39;3.60;99.90
16635;DHT22;8431;52.458;9.998;2023-02-01T14:37:22;3.60;99.90
16635;DHT22;8431;52.458;9.998;2023-02-01T14:39:56;3.60;99.90
16635;DHT22;8431;52.458;9.998;2023-02-01T14:42:29;3.50;99.90
16635;DHT22;8431;52.458;9.998;2023-02-01T14:51:02;3.30;99.90
16635;DHT22;8431;52.458;9.998;2023-02-01T14:53:33;3.20;99.90
16635;DHT22;8431;52.458;9.998;2023-02-01T14:56:07;3.20;99.90
16635;DHT22;8431;52.458;9.998;2023-02-01T14:58:41;3.10;99.90
16635;DHT22;8431;52.458;9.998;2023-02-01T15:01:22;3.00;99.90
16635;DHT22;8431;52.458;9.998;2023-02-01T15:03:58;2.90;99.90
16635;DHT22;8431;52.458;9.998;2023-02-01T15:06:31;2.90;99.90
16635;DHT22;8431;52.458;9.998;2023-02-01T15:09:01;2.90;99.90
16635;DHT22;8431;52.458;9.998;2023-02-01T15:11:28;2.90;99.90
16635;DHT22;8431;52.458;9.998;2023-02-01T15:13:55;2.90;99.90
16635;DHT22;8431;52.458;9.998;2023-02-01T15:16:24;2.90;99.90
16635;DHT22;8431;52.458;9.998;2023-02-01T15:19:07;2.90;99.90
16635;DHT22;8431;52.458;9.998;2023-02-01T15:21:44;2.90;99.90
16635;DHT22;8431;52.458;9.998;2023-02-01T15:24:19;2.90;99.90
16635;DHT22;8431;52.458;9.998;2023-02-01T15:26:47;2.90;99.90
16635;DHT22;8431;52.458;9.998;2023-02-01T15:29:15;2.80;99.90
16635;DHT22;8431;52.458;9.998;2023-02-01T15:31:44;2.80;99.90
16635;DHT22;8431;52.458;9.998;2023-02-01T15:34:12;2.80;99.90
16635;DHT22;8431;52.458;9.998;2023-02-01T15:36:40;2.90;99.90
16635;DHT22;8431;52.458;9.998;2023-02-01T15:39:23;2.90;99.90
16635;DHT22;8431;52.458;9.998;2023-02-01T15:41:53;2.80;99.90
16635;DHT22;8431;52.458;9.998;2023-02-01T15:44:31;2.80;99.90
16635;DHT22;8431;52.458;9.998;2023-02-01T15:46:58;2.80;99.90
16635;DHT22;8431;52.458;9.998;2023-02-01T15:49:36;2.80;99.90
16635;DHT22;8431;52.458;9.998;2023-02-01T15:52:24;2.90;99.90
16635;DHT22;8431;52.458;9.998;2023-02-01T15:55:02;2.90;99.90
16635;DHT22;8431;52.458;9.998;2023-02-01T15:57:35;3.00;99.90
16635;DHT22;8431;52.458;9.998;2023-02-01T16:00:05;3.00;99.90
16635;DHT22;8431;52.458;9.998;2023-02-01T16:02:35;3.00;99.90
16635;DHT22;8431;52.458;9.998;2023-02-01T16:05:05;2.90;99.90
16635;DHT22;8431;52.458;9.998;2023-02-01T16:07:33;3.00;99.90
16635;DHT22;8431;52.458;9.998;2023-02-01T16:10:23;3.00;99.90
16635;DHT22;8431;52.458;9.998;2023-02-01T16:13:10;3.10;99.90
16635;DHT22;8431;52.458;9.998;2023-02-01T16:15:45;3.20;99.90
16635;DHT22;8431;52.458;9.998;2023-02-01T16:18:13;3.30;99.90
16635;DHT22;8431;52.458;9.998;2023-02-01T16:20:41;3.30;99.90
16635;DHT22;8431;52.458;9.998;2023-02-01T16:23:09;3.30;99.90
16635;DHT22;8431;52.458;9.998;2023-02-01T16:25:38;3.40;99.90
16635;DHT22;8431;52.458;9.998;2023-02-01T16:28:05;3.40;99.90
16635;DHT22;8431;52.458;9.998;2023-02-01T16:30:33;3.30;99.90
16635;DHT22;8431;52.458;9.998;2023-02-01T16:33:01;3.30;99.90
16635;DHT22;8431;52.458;9.998;2023-02-01T16:35:32;3.30;99.90
16635;DHT22;8431;52.458;9.998;2023-02-01T16:38:01;3.40;99.90
16635;DHT22;8431;52.458;9.998;2023-02-01T16:40:34;3.50;99.90
16635;DHT22;8431;52.458;9.998;2023-02-01T16:43:11;3.50;99.90
16635;DHT22;8431;52.458;9.998;2023-02-01T16:45:38;3.60;99.90
16635;DHT22;8431;52.458;9.998;2023-02-01T16:48:06;3.60;99.90
16635;DHT22;8431;52.458;9.998;2023-02-01T16:50:33;3.60;99.90
16635;DHT22;8431;52.458;9.998;2023-02-01T16:53:01;3.60;99.90
16635;DHT22;8431;52.458;9.998;2023-02-01T16:55:28;3.70;99.90
16635;DHT22;8431;52.458;9.998;2023-02-01T16:57:55;3.80;99.90
16635;DHT22;8431;52.458;9.998;2023-02-01T17:00:24;3.80;99.90
16635;DHT22;8431;52.458;9.998;2023-02-01T17:02:52;3.80;99.90
16635;DHT22;8431;52.458;9.998;2023-02-01T17:05:19;3.80;99.90